createdAt,value
2018-01-04T00:02:17.173Z,66.20
2018-01-04T00:04:46.443Z,65.90
2018-01-04T02:22:22.565Z,67.40
2018-01-04T02:25:03.218Z,67.30
2018-01-04T02:30:47.039Z,67.30
2018-01-04T02:33:26.486Z,67.30
2018-01-04T02:36:06.640Z,67.20
2018-01-04T02:38:46.938Z,67.20
2018-01-04T02:41:26.438Z,67.10
2018-01-04T02:44:01.518Z,67.10
2018-01-04T02:46:29.074Z,67.00
2018-01-04T02:48:56.797Z,66.90
2018-01-04T02:51:25.135Z,67.10
2018-01-04T02:53:52.917Z,66.90
2018-01-04T02:56:20.476Z,66.90
2018-01-04T02:58:48.043Z,67.00
2018-01-04T03:01:15.622Z,67.10
2018-01-04T03:03:43.199Z,67.80
2018-01-04T03:06:11.047Z,67.20
2018-01-04T03:08:39.461Z,67.20
2018-01-04T03:11:07.017Z,67.20
2018-01-04T03:13:34.598Z,66.90
2018-01-04T03:16:02.166Z,66.80
2018-01-04T03:18:29.925Z,66.80
2018-01-04T03:20:58.405Z,66.70
2018-01-04T03:23:32.306Z,67.00
2018-01-04T03:29:07.935Z,67.30
2018-01-04T03:31:41.388Z,67.20
2018-01-04T03:34:15.296Z,67.40
2018-01-04T03:36:49.615Z,67.40
2018-01-04T03:39:24.035Z,67.50
2018-01-04T03:41:57.841Z,67.70
2018-01-04T03:44:31.364Z,67.20
2018-01-04T03:47:05.435Z,67.10
2018-01-04T03:49:38.754Z,67.00
2018-01-04T03:52:12.738Z,67.30
2018-01-04T03:54:46.154Z,67.30
2018-01-04T03:57:19.326Z,67.50
2018-01-04T03:59:46.926Z,67.40
2018-01-04T04:02:20.976Z,67.60
2018-01-04T04:04:54.346Z,67.60
2018-01-04T04:07:28.390Z,67.40
2018-01-04T04:09:55.966Z,67.30
2018-01-04T04:12:23.526Z,67.00
2018-01-04T04:14:51.157Z,67.10
2018-01-04T04:17:18.734Z,67.20
2018-01-04T04:19:46.302Z,67.30
2018-01-04T04:22:13.866Z,67.00
2018-01-04T04:24:41.551Z,66.90
2018-01-04T04:27:09.611Z,66.30
2018-01-04T04:29:37.174Z,66.40
2018-01-04T04:32:04.755Z,66.40
2018-01-04T04:34:33.090Z,67.10
2018-01-04T04:37:00.643Z,66.40
2018-01-04T04:39:28.219Z,66.10
2018-01-04T04:41:55.781Z,66.30
2018-01-04T04:44:23.340Z,66.20
2018-01-04T04:46:50.927Z,65.60
2018-01-04T04:49:19.258Z,65.90
2018-01-04T04:51:46.822Z,65.80
2018-01-04T04:54:14.410Z,65.60
2018-01-04T04:56:41.970Z,65.90
2018-01-04T04:59:09.541Z,65.20
2018-01-04T05:01:37.881Z,65.30
2018-01-04T05:04:05.438Z,65.30
2018-01-04T05:06:32.999Z,65.00
2018-01-04T05:09:00.579Z,65.00
2018-01-04T05:11:28.132Z,65.00
2018-01-04T05:13:55.691Z,65.00
2018-01-04T05:16:23.274Z,65.00
2018-01-04T05:18:51.695Z,65.10
2018-01-04T05:21:19.250Z,65.10
2018-01-04T05:23:46.916Z,65.00
2018-01-04T05:26:14.473Z,65.00
2018-01-04T05:28:42.031Z,65.50
2018-01-04T05:31:09.615Z,65.40
2018-01-04T05:33:37.179Z,65.40
2018-01-04T05:36:04.734Z,65.00
2018-01-04T05:38:32.506Z,65.10
2018-01-04T05:41:00.059Z,65.20
2018-01-04T05:43:49.291Z,65.30
2018-01-04T05:46:16.853Z,65.30
2018-01-04T05:48:44.456Z,65.50
2018-01-04T05:51:12.250Z,65.40
2018-01-04T05:53:40.586Z,65.90
2018-01-04T05:56:08.165Z,65.80
2018-01-04T05:58:35.723Z,66.50
2018-01-04T06:01:03.591Z,66.80
2018-01-04T06:03:31.149Z,67.70
2018-01-04T06:05:58.704Z,68.30
2018-01-04T06:08:26.282Z,68.90
2018-01-04T06:10:54.628Z,70.00
2018-01-04T06:13:22.326Z,69.90
2018-01-04T06:15:50.670Z,70.40
2018-01-04T06:18:18.233Z,70.30
2018-01-04T06:20:45.826Z,70.70
2018-01-04T06:23:14.241Z,70.70
2018-01-04T06:25:41.834Z,70.70
2018-01-04T06:28:09.410Z,70.80
2018-01-04T06:30:37.741Z,70.90
2018-01-04T06:33:05.330Z,70.80
2018-01-04T06:35:32.889Z,70.90
2018-01-04T06:38:00.503Z,71.30
2018-01-04T06:40:28.065Z,71.10
2018-01-04T06:42:55.650Z,70.60
2018-01-04T06:45:23.232Z,70.90
2018-01-04T06:47:50.796Z,71.00
2018-01-04T06:50:18.392Z,70.80
2018-01-04T06:52:45.945Z,70.80
2018-01-04T06:55:13.506Z,70.60
2018-01-04T06:57:41.092Z,70.60
2018-01-04T07:00:08.663Z,70.50
2018-01-04T07:02:36.351Z,70.60
2018-01-04T07:05:03.922Z,70.60
2018-01-04T07:07:32.242Z,70.60
2018-01-04T07:09:59.837Z,70.60
2018-01-04T07:12:28.898Z,70.90
2018-01-04T07:14:56.668Z,70.90
2018-01-04T07:17:24.231Z,71.00
2018-01-04T07:19:52.006Z,71.30
2018-01-04T07:22:19.620Z,71.30
2018-01-04T07:24:47.946Z,71.70
2018-01-04T07:27:15.839Z,71.70
2018-01-04T07:29:43.390Z,72.50
2018-01-04T07:32:10.960Z,72.90
2018-01-04T07:34:38.543Z,73.00
2018-01-04T07:37:06.408Z,73.70
2018-01-04T07:39:34.308Z,73.90
2018-01-04T07:42:01.870Z,75.10
2018-01-04T07:44:29.434Z,74.60
2018-01-04T07:46:57.007Z,75.20
2018-01-04T07:49:24.646Z,75.90
2018-01-04T07:51:52.403Z,76.40
2018-01-04T07:54:19.954Z,76.90
2018-01-04T07:56:47.514Z,77.90
2018-01-04T07:59:15.100Z,78.00
2018-01-04T08:01:42.659Z,78.10
2018-01-04T08:04:10.263Z,78.20
2018-01-04T08:06:37.825Z,78.60
2018-01-04T08:09:05.398Z,79.00
2018-01-04T08:11:32.993Z,79.30
2018-01-04T08:14:00.550Z,78.90
2018-01-04T08:16:28.164Z,79.20
2018-01-04T08:18:56.510Z,79.10
2018-01-04T08:21:24.075Z,79.10
2018-01-04T08:23:51.658Z,79.40
2018-01-04T08:26:19.979Z,78.90
2018-01-04T08:28:47.776Z,78.90
2018-01-04T08:31:15.335Z,79.00
2018-01-04T08:33:42.924Z,79.10
2018-01-04T08:36:11.274Z,79.00
2018-01-04T08:38:39.002Z,79.00
2018-01-04T08:41:06.801Z,78.40
2018-01-04T08:43:34.375Z,78.80
2018-01-04T08:46:02.708Z,77.80
2018-01-04T08:48:30.307Z,77.80
2018-01-04T08:50:57.889Z,77.80
2018-01-04T08:53:26.290Z,78.30
2018-01-04T08:55:53.851Z,78.30
2018-01-04T08:58:21.410Z,77.90
2018-01-04T09:00:49.004Z,78.30
2018-01-04T09:03:16.567Z,77.70
2018-01-04T09:05:44.170Z,77.50
2018-01-04T09:08:11.726Z,76.70
2018-01-04T09:10:39.288Z,77.00
2018-01-04T09:13:06.883Z,76.50
2018-01-04T09:15:34.479Z,76.20
2018-01-04T09:18:02.368Z,76.20
2018-01-04T09:20:29.935Z,76.50
2018-01-04T09:22:57.494Z,76.40
2018-01-04T09:25:25.076Z,76.60
2018-01-04T09:27:52.634Z,76.80
2018-01-04T09:30:20.507Z,76.50
2018-01-04T09:32:48.063Z,76.50
2018-01-04T09:35:15.622Z,76.70
2018-01-04T09:37:43.209Z,76.70
2018-01-04T09:40:10.786Z,76.10
2018-01-04T09:42:38.552Z,76.70
2018-01-04T09:45:06.272Z,76.50
2018-01-04T09:47:33.827Z,76.20
2018-01-04T09:50:01.434Z,76.50
2018-01-04T09:52:28.999Z,76.80
2018-01-04T09:54:56.717Z,76.20
2018-01-04T09:57:24.290Z,76.50
2018-01-04T09:59:51.857Z,75.40
2018-01-04T10:02:20.307Z,75.20
2018-01-04T10:04:47.888Z,75.10
2018-01-04T10:07:15.503Z,74.70
2018-01-04T10:09:43.059Z,74.70
2018-01-04T10:12:10.622Z,74.50
2018-01-04T10:14:38.215Z,75.50
2018-01-04T10:17:05.774Z,75.80
2018-01-04T10:19:33.510Z,76.50
2018-01-04T10:22:01.138Z,76.60
2018-01-04T10:24:29.481Z,77.40
2018-01-04T10:26:57.176Z,77.30
2018-01-04T10:29:25.510Z,79.60
2018-01-04T10:31:53.315Z,78.60
2018-01-04T10:34:20.942Z,79.20
2018-01-04T10:36:48.532Z,79.40
2018-01-04T10:39:16.917Z,80.50
2018-01-04T10:41:45.355Z,80.10
2018-01-04T10:44:14.346Z,80.50
2018-01-04T10:46:42.827Z,81.10
2018-01-04T10:49:11.683Z,81.60
2018-01-04T10:51:40.096Z,81.60
2018-01-04T10:54:08.268Z,82.10
2018-01-04T10:56:37.258Z,81.00
2018-01-04T10:59:04.986Z,81.00
2018-01-04T11:01:33.326Z,81.40
2018-01-04T11:04:00.908Z,81.30
2018-01-04T11:06:28.522Z,81.60
2018-01-04T11:08:56.387Z,81.80
2018-01-04T11:11:24.030Z,82.40
2018-01-04T11:13:51.708Z,82.40
2018-01-04T11:16:19.351Z,83.20
2018-01-04T11:18:47.183Z,83.40
2018-01-04T11:21:15.402Z,82.90
2018-01-04T11:23:43.819Z,83.00
2018-01-04T11:26:11.418Z,83.00
2018-01-04T11:28:39.830Z,83.90
2018-01-04T11:31:07.448Z,83.90
2018-01-04T11:33:36.502Z,83.80
2018-01-04T11:36:04.322Z,83.70
2018-01-04T11:38:31.910Z,83.90
2018-01-04T11:40:59.673Z,84.20
2018-01-04T11:43:27.235Z,83.70
2018-01-04T11:45:54.847Z,84.40
2018-01-04T11:48:23.258Z,84.80
2018-01-04T11:50:50.818Z,84.80
2018-01-04T11:53:18.406Z,85.20
2018-01-04T11:55:46.053Z,86.20
2018-01-04T11:58:13.664Z,86.70
2018-01-04T12:00:42.026Z,86.50
2018-01-04T12:03:09.596Z,86.50
2018-01-04T12:05:37.190Z,86.40
2018-01-04T12:08:04.907Z,86.20
2018-01-04T12:10:32.794Z,86.10
2018-01-04T12:13:01.120Z,86.40
2018-01-04T12:15:28.682Z,86.40
2018-01-04T12:17:56.274Z,86.30
2018-01-04T12:20:23.894Z,86.70
2018-01-04T12:22:51.878Z,86.60
2018-01-04T12:25:19.486Z,87.10
2018-01-04T12:27:47.814Z,87.70
2018-01-04T12:30:15.409Z,87.00
2018-01-04T12:32:43.751Z,87.70
2018-01-04T12:35:11.472Z,87.70
2018-01-04T12:37:39.035Z,87.70
2018-01-04T12:40:06.747Z,88.10
2018-01-04T12:42:34.348Z,87.50
2018-01-04T12:45:02.891Z,88.50
2018-01-04T12:47:31.589Z,88.60
2018-01-04T12:49:59.156Z,88.60
2018-01-04T12:52:26.740Z,88.20
2018-01-04T12:54:54.332Z,87.80
2018-01-04T12:57:21.918Z,88.10
2018-01-04T12:59:49.547Z,87.60
2018-01-04T13:02:17.161Z,87.70
2018-01-04T13:04:45.896Z,87.50
2018-01-04T13:07:13.763Z,87.50
2018-01-04T13:09:41.602Z,87.40
2018-01-04T13:12:09.553Z,87.80
2018-01-04T13:14:37.410Z,88.30
2018-01-04T13:17:06.048Z,89.40
2018-01-04T13:19:34.097Z,89.30
2018-01-04T13:22:01.906Z,89.30
2018-01-04T13:24:29.671Z,89.50
2018-01-04T13:26:57.254Z,89.80
2018-01-04T13:29:25.581Z,90.00
2018-01-04T13:31:53.210Z,90.00
2018-01-04T13:34:20.786Z,89.90
2018-01-04T13:36:48.414Z,89.60
2018-01-04T13:39:16.858Z,89.80
2018-01-04T13:41:44.505Z,89.80
2018-01-04T13:44:12.167Z,88.60
2018-01-04T13:46:39.731Z,88.70
2018-01-04T13:49:07.351Z,88.90
2018-01-04T13:51:36.073Z,88.60
2018-01-04T13:54:04.963Z,88.50
2018-01-04T13:56:32.930Z,88.40
2018-01-04T13:59:01.420Z,88.20
2018-01-04T14:01:29.872Z,88.40
2018-01-04T14:03:57.436Z,88.60
2018-01-04T14:06:25.115Z,88.30
2018-01-04T14:08:52.739Z,89.00
2018-01-04T14:11:21.195Z,90.00
2018-01-04T14:13:48.920Z,89.80
2018-01-04T14:16:16.478Z,89.90
2018-01-04T14:18:44.048Z,90.20
2018-01-04T14:21:13.028Z,90.40
2018-01-04T14:23:40.798Z,90.60
2018-01-04T14:26:09.575Z,90.70
2018-01-04T14:28:37.134Z,90.70
2018-01-04T14:31:04.763Z,91.00
2018-01-04T14:33:33.118Z,91.20
2018-01-04T14:36:01.727Z,90.50
2018-01-04T14:38:30.290Z,90.60
2018-01-04T14:40:57.865Z,90.60
2018-01-04T14:43:26.416Z,90.90
2018-01-04T14:45:55.169Z,90.80
2018-01-04T14:48:23.494Z,90.80
2018-01-04T14:50:51.518Z,91.00
2018-01-04T14:53:19.900Z,90.80
2018-01-04T14:55:50.527Z,90.60
2018-01-04T14:58:19.316Z,90.70
2018-01-04T15:00:47.696Z,90.60
2018-01-04T15:03:20.886Z,90.80
2018-01-04T15:05:48.668Z,90.80
2018-01-04T15:08:16.331Z,91.00
2018-01-04T15:10:45.101Z,91.00
2018-01-04T15:13:12.705Z,90.80
2018-01-04T15:15:41.551Z,91.30
2018-01-04T15:18:09.586Z,91.30
2018-01-04T15:20:37.318Z,91.60
2018-01-04T15:23:06.118Z,91.80
2018-01-04T15:25:34.458Z,92.00
2018-01-04T15:28:02.635Z,92.00
2018-01-04T15:30:30.403Z,92.00
2018-01-04T15:32:58.921Z,92.00
2018-01-04T15:35:26.954Z,92.10
2018-01-04T15:37:55.017Z,92.10
2018-01-04T15:40:23.189Z,92.00
2018-01-04T15:42:51.058Z,92.10
2018-01-04T15:45:20.059Z,92.30
2018-01-04T15:47:48.019Z,92.30
2018-01-04T15:50:15.615Z,92.40
2018-01-04T15:52:43.980Z,92.60
2018-01-04T15:55:11.542Z,92.60
2018-01-04T15:57:39.534Z,92.70
2018-01-04T16:00:07.872Z,92.80
2018-01-04T16:02:35.442Z,92.80
2018-01-04T16:05:03.335Z,93.20
2018-01-04T16:07:33.634Z,92.40
2018-01-04T16:10:01.408Z,92.40
2018-01-04T16:12:29.812Z,92.50
2018-01-04T16:14:57.508Z,92.50
2018-01-04T16:17:25.110Z,92.60
2018-01-04T16:19:52.679Z,92.60
2018-01-04T16:22:21.120Z,92.70
2018-01-04T16:24:49.091Z,92.80
2018-01-04T16:27:18.073Z,92.60
2018-01-04T16:29:45.832Z,92.60
2018-01-04T16:32:13.426Z,91.80
2018-01-04T16:34:41.256Z,91.90
2018-01-04T16:37:08.918Z,92.20
2018-01-04T16:39:36.701Z,92.50
2018-01-04T16:42:04.823Z,93.10
2018-01-04T16:44:32.418Z,93.10
2018-01-04T16:47:00.121Z,93.30
2018-01-04T16:49:28.476Z,94.50
2018-01-04T16:51:56.054Z,94.50
2018-01-04T16:54:24.067Z,94.60
2018-01-04T16:56:51.982Z,97.50
2018-01-04T16:59:19.690Z,96.90
2018-01-04T17:01:47.377Z,95.50
2018-01-04T17:04:14.979Z,97.00
2018-01-04T17:06:42.558Z,96.00
2018-01-04T17:09:10.983Z,93.30
2018-01-04T17:11:38.713Z,93.30
2018-01-04T17:14:06.287Z,92.60
2018-01-04T17:16:33.882Z,92.50
2018-01-04T17:19:01.478Z,92.20
2018-01-04T17:21:29.820Z,92.70
2018-01-04T17:23:58.559Z,92.60
2018-01-04T17:26:26.454Z,92.60
2018-01-04T17:28:54.934Z,92.30
2018-01-04T17:31:23.750Z,92.20
2018-01-04T17:33:51.365Z,92.20
2018-01-04T17:36:19.228Z,92.20
2018-01-04T17:38:47.051Z,92.00
2018-01-04T17:41:14.905Z,92.10
2018-01-04T17:43:42.618Z,92.10
2018-01-04T17:46:10.206Z,91.90
2018-01-04T17:48:37.810Z,91.80
2018-01-04T17:51:06.195Z,91.90
2018-01-04T17:53:34.756Z,91.90
2018-01-04T17:56:02.407Z,91.90
2018-01-04T17:58:30.227Z,91.90
2018-01-04T18:00:58.339Z,91.80
2018-01-04T18:03:26.833Z,91.70
2018-01-04T18:05:54.972Z,91.70
2018-01-04T18:08:23.224Z,91.50
2018-01-04T18:10:51.449Z,91.50
2018-01-04T18:13:19.434Z,91.40
2018-01-04T18:15:50.395Z,91.60
2018-01-04T18:18:17.981Z,91.60
2018-01-04T18:20:45.801Z,91.60
2018-01-04T18:23:13.607Z,91.60
2018-01-04T18:25:42.219Z,91.70
2018-01-04T18:28:10.033Z,91.70
2018-01-04T18:30:37.658Z,91.50
2018-01-04T18:33:05.268Z,91.60
2018-01-04T18:35:33.143Z,91.40
2018-01-04T18:38:01.277Z,91.10
2018-01-04T18:40:29.807Z,90.90
2018-01-04T18:42:57.730Z,90.90
2018-01-04T18:45:26.262Z,90.80
2018-01-04T18:47:53.840Z,90.80
2018-01-04T18:50:22.299Z,90.90
2018-01-04T18:52:50.303Z,90.70
2018-01-04T18:55:20.085Z,90.70
2018-01-04T18:57:48.387Z,90.70
2018-01-04T19:00:17.044Z,90.80
2018-01-04T19:02:46.034Z,90.70
2018-01-04T19:05:14.221Z,91.00
2018-01-04T19:07:44.632Z,90.90
2018-01-04T19:10:12.807Z,90.90
2018-01-04T19:12:40.877Z,91.00
2018-01-04T19:15:09.973Z,90.80
2018-01-04T19:17:38.360Z,91.00
2018-01-04T19:20:07.126Z,90.80
2018-01-04T19:22:35.272Z,90.80
2018-01-04T19:25:03.100Z,90.90
2018-01-04T19:27:31.520Z,90.80
2018-01-04T19:29:59.595Z,90.90
2018-01-04T19:32:27.580Z,90.80
2018-01-04T19:34:55.621Z,90.80
2018-01-04T19:37:23.494Z,90.80
2018-01-04T19:39:51.606Z,90.90
2018-01-04T19:42:20.310Z,90.90
2018-01-04T19:44:48.727Z,91.10
2018-01-04T19:47:17.294Z,91.00
2018-01-04T19:49:45.964Z,91.00
2018-01-04T19:52:14.181Z,91.00
2018-01-04T19:54:42.215Z,90.80
2018-01-04T19:57:10.183Z,90.90
2018-01-04T19:59:39.348Z,90.70
2018-01-04T20:02:07.431Z,90.70
2018-01-04T20:04:37.350Z,90.80
2018-01-04T20:07:05.267Z,90.70
2018-01-04T20:09:33.772Z,90.70
2018-01-04T20:12:01.864Z,90.60
2018-01-04T20:14:31.256Z,90.70
2018-01-04T20:17:00.249Z,90.70
2018-01-04T20:19:28.357Z,90.40
2018-01-04T20:21:56.496Z,90.50
2018-01-04T20:24:24.608Z,90.50
2018-01-04T20:26:53.458Z,90.40
2018-01-04T20:29:21.803Z,90.50
2018-01-04T20:31:49.701Z,90.40
2018-01-04T20:34:18.764Z,90.40
2018-01-04T20:36:47.385Z,90.40
2018-01-04T20:39:15.369Z,90.40
2018-01-04T20:41:43.428Z,90.60
2018-01-04T20:44:11.343Z,90.50
2018-01-04T20:46:39.366Z,90.60
2018-01-04T20:49:08.650Z,90.70
2018-01-04T20:51:36.712Z,90.70
2018-01-04T20:54:05.104Z,90.50
2018-01-04T20:56:34.038Z,90.60
2018-01-04T20:59:02.012Z,90.70
2018-01-04T21:01:30.739Z,90.70
2018-01-04T21:03:58.822Z,90.50
2018-01-04T21:06:26.812Z,90.60
2018-01-04T21:19:41.369Z,55.20
2018-01-04T21:31:10.239Z,49.00
2018-01-04T21:33:39.655Z,51.10
2018-01-04T21:45:56.203Z,49.00
2018-01-04T21:48:26.319Z,45.90
2018-01-04T21:50:55.618Z,43.70
2018-01-04T21:54:40.879Z,37.20
2018-01-04T21:57:11.042Z,41.70
2018-01-04T21:59:40.289Z,50.40
2018-01-04T22:02:09.146Z,58.30
2018-01-04T22:04:37.933Z,65.50
2018-01-04T22:07:07.427Z,69.30
2018-01-04T22:09:37.833Z,72.40
2018-01-04T22:12:07.733Z,73.80
2018-01-04T22:14:37.130Z,74.50
2018-01-04T22:17:06.547Z,74.60
2018-01-04T22:19:35.839Z,74.40
2018-01-04T22:22:05.109Z,74.80
2018-01-04T22:24:34.614Z,74.80
2018-01-04T22:27:03.627Z,75.10
2018-01-04T22:29:32.207Z,75.00
2018-01-04T22:32:00.781Z,73.80
2018-01-04T22:34:29.966Z,74.00
2018-01-04T22:36:58.722Z,74.00
2018-01-04T22:39:27.415Z,74.00
2018-01-04T22:41:55.942Z,73.40
2018-01-04T22:44:25.610Z,72.90
2018-01-04T22:46:55.247Z,72.80
2018-01-04T22:49:26.795Z,72.60
2018-01-04T22:51:55.524Z,72.50
2018-01-04T22:54:25.138Z,72.60
2018-01-04T22:56:53.849Z,72.80
2018-01-04T22:59:22.428Z,73.00
2018-01-04T23:01:50.959Z,73.20
2018-01-04T23:04:20.342Z,73.90
2018-01-04T23:06:49.249Z,73.90
2018-01-04T23:09:18.203Z,74.70
2018-01-04T23:11:46.685Z,74.90
2018-01-04T23:14:15.214Z,75.40
2018-01-04T23:16:44.512Z,76.90
2018-01-04T23:19:13.662Z,77.60
2018-01-04T23:21:42.120Z,77.50
2018-01-04T23:24:10.721Z,78.20
2018-01-04T23:26:39.407Z,79.00
2018-01-04T23:29:07.975Z,79.10
2018-01-04T23:31:36.346Z,79.50
2018-01-04T23:34:04.829Z,78.80
2018-01-04T23:36:33.379Z,77.60
2018-01-04T23:39:01.789Z,77.60
2018-01-04T23:41:30.590Z,77.20
2018-01-04T23:43:58.962Z,78.10
2018-01-04T23:46:27.334Z,78.00
2018-01-04T23:48:56.023Z,78.30
2018-01-04T23:51:24.469Z,79.00
2018-01-04T23:53:53.038Z,79.50
2018-01-04T23:56:21.416Z,80.20
2018-01-04T23:58:49.857Z,80.40
